RYR21ER LEPA-EGKK
Flight info
| Callsign | RYR21ER |
|---|---|
| Flight time | N/A |
| Altitude | 34000 |
| Route | DRAGO DCT PAPOS DCT UMURE DCT XIKEN DCT KARES DCT ARBEK DCT REBUL DCT USKAR DCT MOPAS DCT GIROM/N0455F360 DCT GONUP DCT MANAK DCT TIRAV DCT DIXAD DCT NTS DCT BAKUL DCT REN DCT UPALO DCT REVTU DCT ODREP UP88 VASUX |
| Aircraft | B738/M-SDE2E3FGHIRWXY/LB1 |
Departure
| Time | N/A |
|---|---|
| Airport | Palma de Mallorca Airport (LEPA) |
Arrival
| Time | 2026-05-04 18:43 |
|---|---|
| Airport | London Gatwick Airport (EGKK) |
| Time | Latitude | Longitude | Altitude | Speed | Heading |
|---|---|---|---|---|---|
| 2026-05-04 17:46 | 47.64074 | -1.67996 | 33951 ft | 487 kts | 354° |
| 2026-05-04 17:46 | 47.66300 | -1.68316 | 33951 ft | 487 kts | 354° |
| 2026-05-04 17:47 | 47.74195 | -1.69452 | 33955 ft | 487 kts | 354° |
| 2026-05-04 17:47 | 47.79810 | -1.70263 | 33967 ft | 487 kts | 354° |
| 2026-05-04 17:48 | 47.87672 | -1.71401 | 33967 ft | 488 kts | 355° |
| 2026-05-04 17:48 | 47.94453 | -1.72386 | 33962 ft | 488 kts | 355° |
| 2026-05-04 17:49 | 48.01217 | -1.73370 | 33968 ft | 488 kts | 355° |
| 2026-05-04 17:49 | 48.07959 | -1.74291 | 33961 ft | 488 kts | 358° |
| 2026-05-04 17:50 | 48.14764 | -1.74486 | 33971 ft | 488 kts | 1° |
| 2026-05-04 17:50 | 48.21546 | -1.74445 | 33970 ft | 488 kts | 1° |
| 2026-05-04 17:51 | 48.28335 | -1.74454 | 33965 ft | 489 kts | 0° |
| 2026-05-04 17:51 | 48.35125 | -1.74522 | 33974 ft | 489 kts | 0° |
| 2026-05-04 17:52 | 48.41945 | -1.74609 | 33979 ft | 489 kts | 0° |
| 2026-05-04 17:52 | 48.48741 | -1.74693 | 33984 ft | 490 kts | 0° |
| 2026-05-04 17:53 | 48.55593 | -1.74776 | 33986 ft | 490 kts | 0° |
| 2026-05-04 17:53 | 48.62387 | -1.74856 | 33983 ft | 490 kts | 0° |
| 2026-05-04 17:54 | 48.69222 | -1.74938 | 33982 ft | 491 kts | 0° |
| 2026-05-04 17:54 | 48.74943 | -1.75007 | 33983 ft | 491 kts | 360° |
| 2026-05-04 17:55 | 48.82899 | -1.75102 | 33982 ft | 491 kts | 360° |
| 2026-05-04 17:55 | 48.89755 | -1.75185 | 33981 ft | 491 kts | 360° |
| 2026-05-04 17:56 | 48.96551 | -1.75108 | 33981 ft | 490 kts | 1° |
| 2026-05-04 17:56 | 49.03397 | -1.74795 | 33983 ft | 489 kts | 2° |
| 2026-05-04 17:57 | 49.09061 | -1.74536 | 33983 ft | 489 kts | 2° |
| 2026-05-04 17:57 | 49.15843 | -1.74264 | 33985 ft | 488 kts | 1° |
| 2026-05-04 17:58 | 49.23755 | -1.73967 | 33989 ft | 486 kts | 1° |
| 2026-05-04 17:58 | 49.29402 | -1.73756 | 33985 ft | 486 kts | 1° |
| 2026-05-04 17:59 | 49.37248 | -1.73459 | 33991 ft | 484 kts | 1° |
| 2026-05-04 18:00 | 49.42206 | -1.73270 | 33989 ft | 483 kts | 1° |
| 2026-05-04 18:14 | 49.46722 | -1.73097 | 33992 ft | 483 kts | 1° |
| 2026-05-04 18:15 | 49.58977 | -1.72420 | 33990 ft | 481 kts | 8° |
| 2026-05-04 18:15 | 49.63330 | -1.70839 | 33984 ft | 478 kts | 20° |
| 2026-05-04 18:16 | 49.66470 | -1.69098 | 33995 ft | 477 kts | 21° |
| 2026-05-04 18:16 | 49.72684 | -1.65504 | 33988 ft | 476 kts | 21° |
| 2026-05-04 18:17 | 49.79946 | -1.61392 | 33993 ft | 475 kts | 21° |
| 2026-05-04 18:17 | 49.87670 | -1.57095 | 33968 ft | 458 kts | 21° |
| 2026-05-04 18:18 | 49.90618 | -1.55455 | 33972 ft | 442 kts | 21° |
| 2026-05-04 18:18 | 49.93497 | -1.53847 | 33968 ft | 428 kts | 21° |
| 2026-05-04 18:18 | 49.96254 | -1.52305 | 33746 ft | 420 kts | 21° |
| 2026-05-04 18:18 | 49.98689 | -1.50940 | 33202 ft | 421 kts | 21° |
| 2026-05-04 18:19 | 50.04270 | -1.48004 | 32140 ft | 422 kts | 19° |
| 2026-05-04 18:19 | 50.07057 | -1.46675 | 31630 ft | 422 kts | 19° |
| 2026-05-04 18:19 | 50.09869 | -1.45341 | 31129 ft | 422 kts | 19° |
| 2026-05-04 18:20 | 50.12675 | -1.43995 | 30629 ft | 422 kts | 19° |
| 2026-05-04 18:20 | 50.15491 | -1.42627 | 30139 ft | 422 kts | 19° |
| 2026-05-04 18:20 | 50.18284 | -1.41258 | 29597 ft | 422 kts | 19° |
| 2026-05-04 18:20 | 50.21117 | -1.39865 | 29012 ft | 421 kts | 19° |
| 2026-05-04 18:21 | 50.23881 | -1.38504 | 28465 ft | 419 kts | 19° |
| 2026-05-04 18:21 | 50.26658 | -1.37137 | 27918 ft | 418 kts | 19° |
| 2026-05-04 18:21 | 50.29438 | -1.35774 | 27388 ft | 416 kts | 19° |
| 2026-05-04 18:21 | 50.32188 | -1.34427 | 26874 ft | 415 kts | 19° |
| 2026-05-04 18:22 | 50.34942 | -1.33076 | 26367 ft | 412 kts | 19° |
| 2026-05-04 18:22 | 50.37680 | -1.31730 | 25861 ft | 410 kts | 19° |
| 2026-05-04 18:22 | 50.40393 | -1.30395 | 25353 ft | 408 kts | 19° |
| 2026-05-04 18:22 | 50.43109 | -1.29055 | 24873 ft | 406 kts | 19° |
| 2026-05-04 18:23 | 50.45801 | -1.27727 | 24392 ft | 404 kts | 19° |
| 2026-05-04 18:23 | 50.48448 | -1.26419 | 23922 ft | 402 kts | 19° |
| 2026-05-04 18:23 | 50.50997 | -1.24682 | 23394 ft | 397 kts | 36° |
| 2026-05-04 18:23 | 50.53139 | -1.22008 | 22885 ft | 391 kts | 43° |
| 2026-05-04 18:24 | 50.55195 | -1.19214 | 22328 ft | 389 kts | 43° |
| 2026-05-04 18:24 | 50.57238 | -1.16428 | 21803 ft | 386 kts | 43° |
| 2026-05-04 18:24 | 50.59274 | -1.13696 | 21277 ft | 384 kts | 42° |
| 2026-05-04 18:24 | 50.61305 | -1.10985 | 20764 ft | 381 kts | 41° |
| 2026-05-04 18:25 | 50.63330 | -1.08294 | 20258 ft | 379 kts | 41° |
| 2026-05-04 18:25 | 50.65337 | -1.05633 | 19778 ft | 376 kts | 41° |
| 2026-05-04 18:25 | 50.67209 | -1.02766 | 19272 ft | 373 kts | 50° |
| 2026-05-04 18:25 | 50.68858 | -0.99634 | 18802 ft | 370 kts | 52° |
| 2026-05-04 18:26 | 50.70436 | -0.96438 | 18314 ft | 368 kts | 53° |
| 2026-05-04 18:26 | 50.72002 | -0.93265 | 17794 ft | 365 kts | 52° |
| 2026-05-04 18:26 | 50.73574 | -0.90137 | 17248 ft | 363 kts | 52° |
| 2026-05-04 18:26 | 50.75183 | -0.86982 | 16192 ft | 375 kts | 51° |
| 2026-05-04 18:27 | 50.76853 | -0.83741 | 15207 ft | 384 kts | 51° |
| 2026-05-04 18:27 | 50.78559 | -0.80438 | 14258 ft | 391 kts | 51° |
| 2026-05-04 18:27 | 50.80270 | -0.77061 | 13238 ft | 396 kts | 55° |
| 2026-05-04 18:27 | 50.81452 | -0.73144 | 12162 ft | 387 kts | 76° |
| 2026-05-04 18:28 | 50.81973 | -0.69033 | 11232 ft | 371 kts | 80° |
| 2026-05-04 18:28 | 50.82398 | -0.65175 | 10309 ft | 351 kts | 81° |
| 2026-05-04 18:28 | 50.82800 | -0.61481 | 9320 ft | 332 kts | 81° |
| 2026-05-04 18:28 | 50.83062 | -0.59095 | 8642 ft | 321 kts | 80° |
| 2026-05-04 18:29 | 50.83143 | -0.58356 | 8508 ft | 316 kts | 80° |
| 2026-05-04 18:29 | 50.83519 | -0.54997 | 8280 ft | 282 kts | 80° |
| 2026-05-04 18:29 | 50.83847 | -0.52091 | 8107 ft | 256 kts | 80° |
| 2026-05-04 18:30 | 50.84455 | -0.46740 | 8001 ft | 245 kts | 80° |
| 2026-05-04 18:30 | 50.84760 | -0.44064 | 7997 ft | 246 kts | 80° |
| 2026-05-04 18:30 | 50.85064 | -0.41404 | 7986 ft | 246 kts | 80° |
| 2026-05-04 18:31 | 50.85369 | -0.38726 | 7992 ft | 246 kts | 80° |
| 2026-05-04 18:31 | 50.85671 | -0.36072 | 7994 ft | 246 kts | 80° |
| 2026-05-04 18:31 | 50.85975 | -0.33403 | 7997 ft | 246 kts | 80° |
| 2026-05-04 18:31 | 50.86277 | -0.30736 | 7996 ft | 246 kts | 80° |
| 2026-05-04 18:32 | 50.86580 | -0.28068 | 7994 ft | 246 kts | 80° |
| 2026-05-04 18:32 | 50.86885 | -0.25394 | 7994 ft | 246 kts | 78° |
| 2026-05-04 18:32 | 50.87569 | -0.22958 | 7774 ft | 251 kts | 52° |
| 2026-05-04 18:32 | 50.88941 | -0.21291 | 7250 ft | 252 kts | 22° |
| 2026-05-04 18:33 | 50.90574 | -0.20919 | 6788 ft | 247 kts | 353° |
| 2026-05-04 18:33 | 50.92166 | -0.21804 | 6316 ft | 240 kts | 333° |
| 2026-05-04 18:33 | 50.93576 | -0.23173 | 5779 ft | 237 kts | 317° |
| 2026-05-04 18:33 | 50.94608 | -0.25158 | 5315 ft | 228 kts | 307° |
| 2026-05-04 18:34 | 50.95520 | -0.27184 | 5053 ft | 226 kts | 306° |
| 2026-05-04 18:34 | 50.96424 | -0.29226 | 5018 ft | 226 kts | 306° |
| 2026-05-04 18:34 | 50.97202 | -0.31378 | 4947 ft | 226 kts | 297° |
| 2026-05-04 18:34 | 50.97880 | -0.33650 | 4425 ft | 231 kts | 296° |
| 2026-05-04 18:35 | 50.98549 | -0.35945 | 3922 ft | 227 kts | 296° |
| 2026-05-04 18:35 | 50.99199 | -0.38196 | 3428 ft | 223 kts | 296° |
| 2026-05-04 18:35 | 50.99836 | -0.40433 | 3076 ft | 218 kts | 296° |
| 2026-05-04 18:35 | 51.00423 | -0.42523 | 2995 ft | 198 kts | 296° |
| 2026-05-04 18:36 | 51.00966 | -0.44471 | 2971 ft | 189 kts | 296° |
| 2026-05-04 18:36 | 51.01494 | -0.46380 | 3001 ft | 190 kts | 296° |
| 2026-05-04 18:36 | 51.02028 | -0.48314 | 2999 ft | 190 kts | 296° |
| 2026-05-04 18:36 | 51.02595 | -0.50201 | 2998 ft | 189 kts | 308° |
| 2026-05-04 18:37 | 51.03617 | -0.51425 | 3014 ft | 182 kts | 338° |
| 2026-05-04 18:37 | 51.04782 | -0.52189 | 3000 ft | 183 kts | 340° |
| 2026-05-04 18:37 | 51.05965 | -0.52929 | 3008 ft | 183 kts | 344° |
| 2026-05-04 18:37 | 51.07186 | -0.52957 | 3005 ft | 178 kts | 22° |
| 2026-05-04 18:38 | 51.08175 | -0.51802 | 3012 ft | 177 kts | 44° |
| 2026-05-04 18:38 | 51.09047 | -0.50397 | 3008 ft | 179 kts | 45° |
| 2026-05-04 18:38 | 51.09927 | -0.48950 | 3011 ft | 180 kts | 46° |
| 2026-05-04 18:38 | 51.10631 | -0.47320 | 2998 ft | 182 kts | 70° |
| 2026-05-04 18:39 | 51.11018 | -0.45441 | 3010 ft | 181 kts | 70° |
| 2026-05-04 18:39 | 51.11403 | -0.43527 | 3005 ft | 182 kts | 73° |
| 2026-05-04 18:39 | 51.11713 | -0.41550 | 2875 ft | 185 kts | 76° |
| 2026-05-04 18:39 | 51.11991 | -0.39549 | 2636 ft | 183 kts | 76° |
| 2026-05-04 18:40 | 51.12254 | -0.37622 | 2399 ft | 171 kts | 76° |
| 2026-05-04 18:40 | 51.12504 | -0.35812 | 2164 ft | 163 kts | 76° |
| 2026-05-04 18:40 | 51.12739 | -0.34098 | 1935 ft | 154 kts | 76° |
| 2026-05-04 18:40 | 51.12967 | -0.32439 | 1749 ft | 154 kts | 76° |
| 2026-05-04 18:41 | 51.13200 | -0.30754 | 1536 ft | 157 kts | 77° |
| 2026-05-04 18:41 | 51.13350 | -0.29632 | 1414 ft | 157 kts | 77° |
| 2026-05-04 18:41 | 51.13645 | -0.27511 | 1139 ft | 140 kts | 76° |
| 2026-05-04 18:41 | 51.13776 | -0.26557 | 1017 ft | 140 kts | 76° |
| 2026-05-04 18:42 | 51.13955 | -0.25264 | 839 ft | 138 kts | 77° |
| 2026-05-04 18:42 | 51.14160 | -0.23785 | 642 ft | 136 kts | 76° |
| 2026-05-04 18:42 | 51.14355 | -0.22359 | 456 ft | 132 kts | 76° |
| 2026-05-04 18:42 | 51.14552 | -0.20917 | 298 ft | 131 kts | 76° |
| 2026-05-04 18:43 | 51.14739 | -0.19590 | 210 ft | 110 kts | 75° |
| 2026-05-04 18:43 | 51.14874 | -0.18639 | 213 ft | 66 kts | 77° |
| 2026-05-04 18:43 | 51.14949 | -0.18132 | 211 ft | 38 kts | 76° |
| 2026-05-04 18:43 | 51.15040 | -0.17827 | 213 ft | 24 kts | 53° |
| 2026-05-04 18:44 | 51.15103 | -0.17759 | 205 ft | 5 kts | 355° |
| 2026-05-04 18:44 | 51.15136 | -0.17767 | 205 ft | 9 kts | 349° |
| 2026-05-04 18:44 | 51.15212 | -0.17785 | 204 ft | 0 kts | 353° |
| 2026-05-04 18:44 | 51.15215 | -0.17786 | 204 ft | 0 kts | 353° |
| 2026-05-04 18:45 | 51.15216 | -0.17786 | 204 ft | 0 kts | 353° |
| 2026-05-04 18:45 | 51.15217 | -0.17786 | 212 ft | 0 kts | 353° |
| 2026-05-04 18:45 | 51.15223 | -0.17788 | 212 ft | 3 kts | 353° |